sensor_id;sensor_type;location;lat;lon;timestamp;pressure;altitude;pressure_sealevel;temperature;humidity
5574;BME280;2563;52.242;7.956;2023-06-10T00:01:00;100609.81;;;17.36;100.00
5574;BME280;2563;52.242;7.956;2023-06-10T00:03:26;100592.97;;;17.26;100.00
5574;BME280;2563;52.242;7.956;2023-06-10T00:05:52;100588.69;;;17.25;100.00
5574;BME280;2563;52.242;7.956;2023-06-10T00:08:17;100577.81;;;17.34;100.00
5574;BME280;2563;52.242;7.956;2023-06-10T00:10:45;100560.44;;;17.34;100.00
5574;BME280;2563;52.242;7.956;2023-06-10T00:13:10;100554.47;;;17.32;100.00
5574;BME280;2563;52.242;7.956;2023-06-10T00:15:39;100547.03;;;17.42;100.00
5574;BME280;2563;52.242;7.956;2023-06-10T00:18:05;100539.47;;;17.37;100.00
5574;BME280;2563;52.242;7.956;2023-06-10T00:20:30;100535.59;;;17.44;100.00
5574;BME280;2563;52.242;7.956;2023-06-10T00:22:57;100521.84;;;17.42;100.00
5574;BME280;2563;52.242;7.956;2023-06-10T00:25:23;100511.44;;;17.42;100.00
5574;BME280;2563;52.242;7.956;2023-06-10T00:27:49;100509.41;;;17.48;100.00
5574;BME280;2563;52.242;7.956;2023-06-10T00:30:14;100505.22;;;17.45;100.00
5574;BME280;2563;52.242;7.956;2023-06-10T00:32:40;100497.03;;;17.53;100.00
5574;BME280;2563;52.242;7.956;2023-06-10T00:35:06;100496.84;;;17.56;100.00
5574;BME280;2563;52.242;7.956;2023-06-10T00:37:32;100500.47;;;17.53;100.00
5574;BME280;2563;52.242;7.956;2023-06-10T00:39:58;100497.41;;;17.45;100.00
5574;BME280;2563;52.242;7.956;2023-06-10T00:42:23;100496.06;;;17.38;100.00
5574;BME280;2563;52.242;7.956;2023-06-10T00:44:50;100491.47;;;17.43;100.00
5574;BME280;2563;52.242;7.956;2023-06-10T00:47:16;100499.59;;;17.37;100.00
5574;BME280;2563;52.242;7.956;2023-06-10T00:49:41;100495.63;;;17.30;100.00
5574;BME280;2563;52.242;7.956;2023-06-10T00:52:08;100493.44;;;17.38;100.00
5574;BME280;2563;52.242;7.956;2023-06-10T00:54:33;100495.97;;;17.39;100.00
5574;BME280;2563;52.242;7.956;2023-06-10T00:57:00;100492.88;;;17.33;100.00
5574;BME280;2563;52.242;7.956;2023-06-10T00:59:27;100495.81;;;17.27;100.00
5574;BME280;2563;52.242;7.956;2023-06-10T01:01:53;100487.56;;;17.18;100.00
5574;BME280;2563;52.242;7.956;2023-06-10T01:04:20;100488.56;;;17.16;100.00
5574;BME280;2563;52.242;7.956;2023-06-10T01:15:05;100496.16;;;17.03;100.00
5574;BME280;2563;52.242;7.956;2023-06-10T01:17:31;100501.59;;;16.98;100.00
5574;BME280;2563;52.242;7.956;2023-06-10T01:19:57;100506.81;;;16.98;100.00
5574;BME280;2563;52.242;7.956;2023-06-10T01:22:27;100506.81;;;16.98;100.00
5574;BME280;2563;52.242;7.956;2023-06-10T01:24:55;100513.19;;;16.93;100.00
5574;BME280;2563;52.242;7.956;2023-06-10T01:27:26;100525.72;;;16.85;100.00
5574;BME280;2563;52.242;7.956;2023-06-10T01:30:08;100527.53;;;16.83;100.00
5574;BME280;2563;52.242;7.956;2023-06-10T01:32:48;100530.34;;;16.78;100.00
5574;BME280;2563;52.242;7.956;2023-06-10T01:35:17;100535.84;;;16.72;100.00
5574;BME280;2563;52.242;7.956;2023-06-10T01:37:45;100545.41;;;16.71;100.00
5574;BME280;2563;52.242;7.956;2023-06-10T01:40:12;100545.56;;;16.68;100.00
5574;BME280;2563;52.242;7.956;2023-06-10T01:42:38;100557.78;;;16.66;100.00
5574;BME280;2563;52.242;7.956;2023-06-10T01:45:04;100548.91;;;16.70;100.00
5574;BME280;2563;52.242;7.956;2023-06-10T01:47:30;100547.25;;;16.69;100.00
5574;BME280;2563;52.242;7.956;2023-06-10T01:49:55;100549.91;;;16.68;100.00
5574;BME280;2563;52.242;7.956;2023-06-10T01:52:21;100559.63;;;16.64;100.00
5574;BME280;2563;52.242;7.956;2023-06-10T01:54:46;100559.94;;;16.58;100.00
5574;BME280;2563;52.242;7.956;2023-06-10T01:57:12;100562.31;;;16.63;100.00
5574;BME280;2563;52.242;7.956;2023-06-10T01:59:37;100569.94;;;16.66;100.00
5574;BME280;2563;52.242;7.956;2023-06-10T02:02:04;100573.53;;;16.63;100.00
5574;BME280;2563;52.242;7.956;2023-06-10T02:04:29;100572.53;;;16.66;100.00
5574;BME280;2563;52.242;7.956;2023-06-10T02:06:55;100571.25;;;16.57;100.00
5574;BME280;2563;52.242;7.956;2023-06-10T02:09:20;100573.22;;;16.52;100.00
5574;BME280;2563;52.242;7.956;2023-06-10T02:11:46;100582.09;;;16.48;100.00
5574;BME280;2563;52.242;7.956;2023-06-10T02:14:11;100571.97;;;16.42;100.00
5574;BME280;2563;52.242;7.956;2023-06-10T02:16:36;100575.00;;;16.32;100.00
5574;BME280;2563;52.242;7.956;2023-06-10T02:19:02;100589.69;;;16.33;100.00
5574;BME280;2563;52.242;7.956;2023-06-10T02:21:31;100594.34;;;16.27;100.00
5574;BME280;2563;52.242;7.956;2023-06-10T02:23:57;100605.56;;;16.27;100.00
5574;BME280;2563;52.242;7.956;2023-06-10T02:26:22;100605.09;;;16.19;100.00
5574;BME280;2563;52.242;7.956;2023-06-10T02:28:48;100621.56;;;16.18;100.00
5574;BME280;2563;52.242;7.956;2023-06-10T02:31:13;100633.78;;;16.16;100.00
5574;BME280;2563;52.242;7.956;2023-06-10T02:33:39;100649.66;;;16.10;100.00
5574;BME280;2563;52.242;7.956;2023-06-10T02:36:06;100671.63;;;16.03;100.00
5574;BME280;2563;52.242;7.956;2023-06-10T02:38:31;100690.06;;;15.97;100.00
5574;BME280;2563;52.242;7.956;2023-06-10T02:40:56;100706.56;;;15.95;100.00
5574;BME280;2563;52.242;7.956;2023-06-10T02:43:22;100728.56;;;15.87;100.00
5574;BME280;2563;52.242;7.956;2023-06-10T02:45:47;100764.22;;;15.83;100.00
5574;BME280;2563;52.242;7.956;2023-06-10T02:48:13;100791.25;;;15.78;100.00
5574;BME280;2563;52.242;7.956;2023-06-10T02:50:38;100834.47;;;15.79;100.00
5574;BME280;2563;52.242;7.956;2023-06-10T02:53:05;100858.94;;;15.73;100.00
5574;BME280;2563;52.242;7.956;2023-06-10T02:55:31;100901.50;;;15.67;100.00
5574;BME280;2563;52.242;7.956;2023-06-10T02:57:57;100946.53;;;15.66;100.00
5574;BME280;2563;52.242;7.956;2023-06-10T03:00:23;100989.13;;;15.61;100.00
5574;BME280;2563;52.242;7.956;2023-06-10T03:02:48;101029.00;;;15.58;100.00
5574;BME280;2563;52.242;7.956;2023-06-10T03:05:14;101079.94;;;15.61;100.00
5574;BME280;2563;52.242;7.956;2023-06-10T03:07:40;101120.78;;;15.56;100.00
5574;BME280;2563;52.242;7.956;2023-06-10T03:10:06;101164.09;;;15.53;100.00
5574;BME280;2563;52.242;7.956;2023-06-10T03:12:32;101211.56;;;15.57;100.00
5574;BME280;2563;52.242;7.956;2023-06-10T03:14:57;101252.28;;;15.55;100.00
5574;BME280;2563;52.242;7.956;2023-06-10T03:17:23;101288.78;;;15.50;100.00
5574;BME280;2563;52.242;7.956;2023-06-10T03:19:49;101317.34;;;15.49;100.00
5574;BME280;2563;52.242;7.956;2023-06-10T03:22:16;101357.22;;;15.46;100.00
5574;BME280;2563;52.242;7.956;2023-06-10T03:24:41;101385.84;;;15.45;100.00
5574;BME280;2563;52.242;7.956;2023-06-10T03:27:09;101420.53;;;15.41;100.00
5574;BME280;2563;52.242;7.956;2023-06-10T03:29:36;101456.75;;;15.44;100.00
5574;BME280;2563;52.242;7.956;2023-06-10T03:32:02;101497.56;;;15.39;100.00
5574;BME280;2563;52.242;7.956;2023-06-10T03:34:28;101518.38;;;15.37;100.00
5574;BME280;2563;52.242;7.956;2023-06-10T03:36:53;101546.91;;;15.37;100.00
5574;BME280;2563;52.242;7.956;2023-06-10T03:39:19;101576.25;;;15.39;100.00
5574;BME280;2563;52.242;7.956;2023-06-10T03:41:44;101599.56;;;15.41;100.00
5574;BME280;2563;52.242;7.956;2023-06-10T03:44:10;101633.16;;;15.45;100.00
5574;BME280;2563;52.242;7.956;2023-06-10T03:46:35;101641.88;;;15.44;100.00
5574;BME280;2563;52.242;7.956;2023-06-10T03:49:00;101657.56;;;15.40;100.00
5574;BME280;2563;52.242;7.956;2023-06-10T03:51:26;101677.44;;;15.39;100.00
5574;BME280;2563;52.242;7.956;2023-06-10T03:53:52;101691.31;;;15.38;100.00
5574;BME280;2563;52.242;7.956;2023-06-10T03:56:17;101715.63;;;15.34;100.00
5574;BME280;2563;52.242;7.956;2023-06-10T03:58:43;101733.75;;;15.36;100.00
5574;BME280;2563;52.242;7.956;2023-06-10T04:01:08;101750.03;;;15.42;100.00
5574;BME280;2563;52.242;7.956;2023-06-10T04:03:34;101758.56;;;15.46;100.00
5574;BME280;2563;52.242;7.956;2023-06-10T04:05:59;101763.81;;;15.44;100.00
5574;BME280;2563;52.242;7.956;2023-06-10T04:08:25;101769.75;;;15.48;100.00
5574;BME280;2563;52.242;7.956;2023-06-10T04:10:50;101772.34;;;15.49;100.00
5574;BME280;2563;52.242;7.956;2023-06-10T04:13:16;101823.56;;;16.43;100.00
5574;BME280;2563;52.242;7.956;2023-06-10T04:15:41;101801.31;;;16.93;100.00
5574;BME280;2563;52.242;7.956;2023-06-10T04:18:07;101729.28;;;16.95;100.00
5574;BME280;2563;52.242;7.956;2023-06-10T04:20:32;101681.09;;;17.10;100.00
5574;BME280;2563;52.242;7.956;2023-06-10T04:22:58;101598.16;;;17.01;100.00
5574;BME280;2563;52.242;7.956;2023-06-10T04:25:24;101525.53;;;16.95;100.00
5574;BME280;2563;52.242;7.956;2023-06-10T04:27:51;101465.16;;;17.10;100.00
5574;BME280;2563;52.242;7.956;2023-06-10T04:30:17;101410.28;;;17.16;100.00
5574;BME280;2563;52.242;7.956;2023-06-10T04:32:43;101342.91;;;17.10;100.00
5574;BME280;2563;52.242;7.956;2023-06-10T04:35:11;101289.16;;;17.09;100.00
5574;BME280;2563;52.242;7.956;2023-06-10T04:37:36;101237.41;;;17.03;100.00
5574;BME280;2563;52.242;7.956;2023-06-10T04:40:02;101211.81;;;17.14;100.00
5574;BME280;2563;52.242;7.956;2023-06-10T04:42:28;101159.19;;;17.08;100.00
5574;BME280;2563;52.242;7.956;2023-06-10T04:44:53;101116.97;;;17.01;100.00
5574;BME280;2563;52.242;7.956;2023-06-10T04:47:19;101086.53;;;17.03;100.00
5574;BME280;2563;52.242;7.956;2023-06-10T04:49:45;101050.13;;;16.83;100.00
5574;BME280;2563;52.242;7.956;2023-06-10T04:52:10;101015.50;;;16.60;100.00
5574;BME280;2563;52.242;7.956;2023-06-10T04:54:36;101001.78;;;16.36;100.00
5574;BME280;2563;52.242;7.956;2023-06-10T04:57:01;101009.91;;;16.28;100.00
5574;BME280;2563;52.242;7.956;2023-06-10T04:59:27;101012.31;;;16.33;100.00
5574;BME280;2563;52.242;7.956;2023-06-10T05:01:52;101005.06;;;16.19;100.00
5574;BME280;2563;52.242;7.956;2023-06-10T05:04:18;101006.16;;;16.13;100.00
5574;BME280;2563;52.242;7.956;2023-06-10T05:06:44;101017.22;;;16.19;100.00
5574;BME280;2563;52.242;7.956;2023-06-10T05:09:09;101022.28;;;16.22;100.00
5574;BME280;2563;52.242;7.956;2023-06-10T05:11:35;101042.66;;;16.53;100.00
5574;BME280;2563;52.242;7.956;2023-06-10T05:14:00;101049.09;;;16.87;100.00
5574;BME280;2563;52.242;7.956;2023-06-10T05:16:26;101033.47;;;17.07;100.00
5574;BME280;2563;52.242;7.956;2023-06-10T05:18:51;101016.16;;;17.27;100.00
5574;BME280;2563;52.242;7.956;2023-06-10T05:21:17;100995.59;;;17.77;100.00
5574;BME280;2563;52.242;7.956;2023-06-10T05:23:42;100929.41;;;17.45;100.00
5574;BME280;2563;52.242;7.956;2023-06-10T05:26:07;100897.84;;;17.53;100.00
5574;BME280;2563;52.242;7.956;2023-06-10T05:28:33;100873.03;;;17.82;100.00
5574;BME280;2563;52.242;7.956;2023-06-10T05:30:58;100844.81;;;18.25;100.00
5574;BME280;2563;52.242;7.956;2023-06-10T05:33:24;100787.75;;;18.03;100.00
5574;BME280;2563;52.242;7.956;2023-06-10T05:35:49;100756.91;;;18.44;100.00
5574;BME280;2563;52.242;7.956;2023-06-10T05:38:15;100708.22;;;18.61;100.00
5574;BME280;2563;52.242;7.956;2023-06-10T05:40:40;100657.94;;;18.59;100.00
5574;BME280;2563;52.242;7.956;2023-06-10T05:43:06;100609.44;;;18.40;100.00
5574;BME280;2563;52.242;7.956;2023-06-10T05:45:31;100581.38;;;18.60;100.00
5574;BME280;2563;52.242;7.956;2023-06-10T05:47:57;100556.19;;;19.05;100.00
5574;BME280;2563;52.242;7.956;2023-06-10T05:50:23;100515.84;;;19.10;100.00
5574;BME280;2563;52.242;7.956;2023-06-10T05:52:49;100471.59;;;19.23;100.00
5574;BME280;2563;52.242;7.956;2023-06-10T05:55:15;100439.63;;;19.20;100.00
5574;BME280;2563;52.242;7.956;2023-06-10T05:57:41;100410.34;;;19.29;100.00
5574;BME280;2563;52.242;7.956;2023-06-10T06:00:07;100386.63;;;19.46;100.00
5574;BME280;2563;52.242;7.956;2023-06-10T06:02:32;100371.00;;;19.59;100.00
5574;BME280;2563;52.242;7.956;2023-06-10T06:04:58;100356.59;;;19.81;100.00
5574;BME280;2563;52.242;7.956;2023-06-10T06:07:23;100368.38;;;19.73;100.00
5574;BME280;2563;52.242;7.956;2023-06-10T06:09:49;100397.44;;;19.82;100.00
5574;BME280;2563;52.242;7.956;2023-06-10T06:12:14;100448.38;;;19.74;100.00
5574;BME280;2563;52.242;7.956;2023-06-10T06:14:39;100519.94;;;19.99;100.00
5574;BME280;2563;52.242;7.956;2023-06-10T06:17:06;100584.94;;;19.91;100.00
5574;BME280;2563;52.242;7.956;2023-06-10T06:19:31;100636.31;;;20.19;100.00
5574;BME280;2563;52.242;7.956;2023-06-10T06:21:56;100679.91;;;20.04;100.00
5574;BME280;2563;52.242;7.956;2023-06-10T06:24:22;100708.50;;;20.49;100.00
5574;BME280;2563;52.242;7.956;2023-06-10T06:26:47;100740.81;;;20.89;100.00
5574;BME280;2563;52.242;7.956;2023-06-10T06:29:12;100787.50;;;20.68;100.00
5574;BME280;2563;52.242;7.956;2023-06-10T06:31:38;100813.16;;;19.90;100.00
5574;BME280;2563;52.242;7.956;2023-06-10T06:34:03;100816.94;;;20.72;100.00
5574;BME280;2563;52.242;7.956;2023-06-10T06:36:28;100840.72;;;20.96;100.00
5574;BME280;2563;52.242;7.956;2023-06-10T06:38:54;100852.78;;;20.98;100.00
5574;BME280;2563;52.242;7.956;2023-06-10T06:41:19;100861.78;;;20.80;100.00
5574;BME280;2563;52.242;7.956;2023-06-10T06:43:47;100870.13;;;21.14;100.00
5574;BME280;2563;52.242;7.956;2023-06-10T06:46:12;100875.31;;;21.42;100.00
5574;BME280;2563;52.242;7.956;2023-06-10T06:48:37;100877.19;;;21.80;100.00
5574;BME280;2563;52.242;7.956;2023-06-10T06:51:03;100888.47;;;22.08;100.00
5574;BME280;2563;52.242;7.956;2023-06-10T06:53:28;100903.09;;;21.72;100.00
5574;BME280;2563;52.242;7.956;2023-06-10T06:55:54;100916.22;;;22.38;100.00
5574;BME280;2563;52.242;7.956;2023-06-10T06:58:19;100915.53;;;22.08;100.00
5574;BME280;2563;52.242;7.956;2023-06-10T07:00:44;100921.69;;;22.35;100.00
5574;BME280;2563;52.242;7.956;2023-06-10T07:03:10;100923.97;;;22.26;100.00
5574;BME280;2563;52.242;7.956;2023-06-10T07:05:35;100934.47;;;22.78;100.00
5574;BME280;2563;52.242;7.956;2023-06-10T07:08:00;100935.63;;;22.73;100.00
5574;BME280;2563;52.242;7.956;2023-06-10T07:10:26;100948.00;;;22.97;100.00
5574;BME280;2563;52.242;7.956;2023-06-10T07:12:52;100952.22;;;22.74;100.00
5574;BME280;2563;52.242;7.956;2023-06-10T07:15:18;100955.34;;;22.79;100.00
5574;BME280;2563;52.242;7.956;2023-06-10T07:17:44;100950.47;;;23.24;100.00
5574;BME280;2563;52.242;7.956;2023-06-10T07:20:09;100956.16;;;23.55;100.00
5574;BME280;2563;52.242;7.956;2023-06-10T07:22:35;100949.63;;;23.61;100.00
5574;BME280;2563;52.242;7.956;2023-06-10T07:25:00;100954.34;;;23.44;100.00
5574;BME280;2563;52.242;7.956;2023-06-10T07:27:26;100960.56;;;23.91;100.00
5574;BME280;2563;52.242;7.956;2023-06-10T07:29:51;100968.19;;;23.83;100.00
5574;BME280;2563;52.242;7.956;2023-06-10T07:32:17;100960.81;;;24.24;100.00
5574;BME280;2563;52.242;7.956;2023-06-10T07:34:42;100959.44;;;24.18;100.00
5574;BME280;2563;52.242;7.956;2023-06-10T07:37:08;100965.63;;;24.06;100.00
5574;BME280;2563;52.242;7.956;2023-06-10T07:39:34;100962.56;;;24.47;100.00
5574;BME280;2563;52.242;7.956;2023-06-10T07:41:59;100965.69;;;23.45;100.00
5574;BME280;2563;52.242;7.956;2023-06-10T07:44:25;100960.00;;;23.75;100.00
5574;BME280;2563;52.242;7.956;2023-06-10T07:46:50;100956.22;;;24.61;100.00
5574;BME280;2563;52.242;7.956;2023-06-10T07:49:15;100957.91;;;24.73;100.00
5574;BME280;2563;52.242;7.956;2023-06-10T07:51:41;100960.19;;;24.89;100.00
5574;BME280;2563;52.242;7.956;2023-06-10T07:54:06;100956.72;;;24.77;100.00
5574;BME280;2563;52.242;7.956;2023-06-10T07:56:32;100954.09;;;25.22;100.00
5574;BME280;2563;52.242;7.956;2023-06-10T07:58:57;100952.41;;;24.88;100.00
5574;BME280;2563;52.242;7.956;2023-06-10T08:01:23;100942.53;;;25.78;100.00
5574;BME280;2563;52.242;7.956;2023-06-10T08:03:49;100947.63;;;24.81;100.00
5574;BME280;2563;52.242;7.956;2023-06-10T08:06:14;100945.44;;;25.09;100.00
5574;BME280;2563;52.242;7.956;2023-06-10T08:08:42;100946.06;;;25.01;100.00
5574;BME280;2563;52.242;7.956;2023-06-10T08:11:11;100938.44;;;26.18;100.00
5574;BME280;2563;52.242;7.956;2023-06-10T08:13:37;100944.94;;;26.56;100.00
5574;BME280;2563;52.242;7.956;2023-06-10T08:16:04;100941.25;;;26.26;100.00
5574;BME280;2563;52.242;7.956;2023-06-10T08:18:29;100946.22;;;26.19;100.00
5574;BME280;2563;52.242;7.956;2023-06-10T08:20:54;100941.78;;;26.20;100.00
5574;BME280;2563;52.242;7.956;2023-06-10T08:23:20;100949.53;;;25.68;100.00
5574;BME280;2563;52.242;7.956;2023-06-10T08:25:45;100955.59;;;25.47;100.00
5574;BME280;2563;52.242;7.956;2023-06-10T08:28:11;100947.97;;;26.30;100.00
5574;BME280;2563;52.242;7.956;2023-06-10T08:30:36;100944.88;;;26.77;100.00
5574;BME280;2563;52.242;7.956;2023-06-10T08:33:02;100954.41;;;26.16;100.00
5574;BME280;2563;52.242;7.956;2023-06-10T08:35:27;100945.69;;;27.08;100.00
5574;BME280;2563;52.242;7.956;2023-06-10T08:37:53;100949.03;;;26.69;100.00
5574;BME280;2563;52.242;7.956;2023-06-10T08:40:18;100937.41;;;26.09;100.00
5574;BME280;2563;52.242;7.956;2023-06-10T08:45:16;100942.66;;;27.12;100.00
5574;BME280;2563;52.242;7.956;2023-06-10T08:47:44;100942.31;;;26.56;100.00
5574;BME280;2563;52.242;7.956;2023-06-10T08:50:10;100938.34;;;27.11;100.00
5574;BME280;2563;52.242;7.956;2023-06-10T08:52:36;100934.56;;;27.64;100.00
5574;BME280;2563;52.242;7.956;2023-06-10T08:55:08;100929.25;;;27.54;100.00
5574;BME280;2563;52.242;7.956;2023-06-10T08:57:36;100926.34;;;27.87;100.00
5574;BME280;2563;52.242;7.956;2023-06-10T09:00:02;100933.31;;;27.49;100.00
5574;BME280;2563;52.242;7.956;2023-06-10T09:02:28;100938.84;;;27.46;100.00
5574;BME280;2563;52.242;7.956;2023-06-10T09:04:56;100935.03;;;27.19;100.00
5574;BME280;2563;52.242;7.956;2023-06-10T09:07:21;100927.25;;;28.34;100.00
5574;BME280;2563;52.242;7.956;2023-06-10T09:09:48;100921.63;;;27.81;99.21
5574;BME280;2563;52.242;7.956;2023-06-10T09:12:14;100915.13;;;28.32;97.96
5574;BME280;2563;52.242;7.956;2023-06-10T09:14:41;100920.63;;;27.52;96.35
5574;BME280;2563;52.242;7.956;2023-06-10T09:17:07;100919.22;;;27.68;96.88
5574;BME280;2563;52.242;7.956;2023-06-10T09:19:32;100915.47;;;28.09;95.85
5574;BME280;2563;52.242;7.956;2023-06-10T09:21:58;100921.19;;;27.75;96.69
5574;BME280;2563;52.242;7.956;2023-06-10T09:24:25;100927.84;;;27.41;95.34
5574;BME280;2563;52.242;7.956;2023-06-10T09:26:50;100920.50;;;27.54;96.08
5574;BME280;2563;52.242;7.956;2023-06-10T09:29:26;100913.09;;;27.67;96.00
5574;BME280;2563;52.242;7.956;2023-06-10T09:31:52;100904.03;;;28.18;94.59
5574;BME280;2563;52.242;7.956;2023-06-10T09:34:17;100912.50;;;29.07;93.30
5574;BME280;2563;52.242;7.956;2023-06-10T09:36:43;100908.44;;;28.37;89.55
5574;BME280;2563;52.242;7.956;2023-06-10T09:39:16;100908.34;;;28.19;90.75
5574;BME280;2563;52.242;7.956;2023-06-10T09:41:43;100913.44;;;28.40;91.10
5574;BME280;2563;52.242;7.956;2023-06-10T09:44:13;100914.84;;;28.45;92.09
5574;BME280;2563;52.242;7.956;2023-06-10T09:46:43;100912.53;;;28.97;92.69
5574;BME280;2563;52.242;7.956;2023-06-10T09:49:10;100903.94;;;28.85;86.56
5574;BME280;2563;52.242;7.956;2023-06-10T09:51:35;100905.06;;;28.45;86.90
5574;BME280;2563;52.242;7.956;2023-06-10T09:54:02;100899.94;;;29.09;86.38
5574;BME280;2563;52.242;7.956;2023-06-10T09:56:35;100893.66;;;29.63;84.21
5574;BME280;2563;52.242;7.956;2023-06-10T09:59:01;100898.53;;;28.77;82.48
5574;BME280;2563;52.242;7.956;2023-06-10T10:01:27;100903.81;;;29.14;82.58
5574;BME280;2563;52.242;7.956;2023-06-10T10:03:53;100907.06;;;28.71;80.78
5574;BME280;2563;52.242;7.956;2023-06-10T10:06:19;100899.38;;;29.51;83.30
5574;BME280;2563;52.242;7.956;2023-06-10T10:08:47;100900.03;;;29.35;80.00
5574;BME280;2563;52.242;7.956;2023-06-10T10:11:17;100897.47;;;30.05;80.56
5574;BME280;2563;52.242;7.956;2023-06-10T10:13:45;100898.81;;;29.29;78.02
5574;BME280;2563;52.242;7.956;2023-06-10T10:16:17;100899.44;;;28.95;78.21
5574;BME280;2563;52.242;7.956;2023-06-10T10:18:49;100903.81;;;29.32;78.92
5574;BME280;2563;52.242;7.956;2023-06-10T10:21:20;100899.88;;;29.54;80.01
5574;BME280;2563;52.242;7.956;2023-06-10T10:24:22;100898.13;;;29.63;78.83
5574;BME280;2563;52.242;7.956;2023-06-10T10:26:49;100894.97;;;29.77;78.58
5574;BME280;2563;52.242;7.956;2023-06-10T10:29:24;100907.38;;;29.59;79.82
5574;BME280;2563;52.242;7.956;2023-06-10T10:31:54;100892.41;;;29.67;82.07
5574;BME280;2563;52.242;7.956;2023-06-10T10:34:24;100898.22;;;29.89;82.29
5574;BME280;2563;52.242;7.956;2023-06-10T10:36:52;100892.88;;;30.67;80.84
5574;BME280;2563;52.242;7.956;2023-06-10T10:39:18;100885.88;;;31.09;78.80
5574;BME280;2563;52.242;7.956;2023-06-10T10:41:44;100890.47;;;29.96;78.86
5574;BME280;2563;52.242;7.956;2023-06-10T10:44:10;100888.22;;;30.27;79.87
5574;BME280;2563;52.242;7.956;2023-06-10T10:46:43;100887.88;;;30.30;76.43
5574;BME280;2563;52.242;7.956;2023-06-10T10:49:10;100879.78;;;29.87;73.06
5574;BME280;2563;52.242;7.956;2023-06-10T10:51:37;100880.31;;;29.91;71.09
5574;BME280;2563;52.242;7.956;2023-06-10T10:54:13;100880.69;;;29.78;71.88
5574;BME280;2563;52.242;7.956;2023-06-10T10:56:39;100892.81;;;30.51;73.14
5574;BME280;2563;52.242;7.956;2023-06-10T10:59:05;100877.44;;;30.71;73.94
5574;BME280;2563;52.242;7.956;2023-06-10T11:01:41;100879.63;;;30.76;72.24
5574;BME280;2563;52.242;7.956;2023-06-10T11:04:08;100881.78;;;30.38;70.74
5574;BME280;2563;52.242;7.956;2023-06-10T11:06:34;100871.91;;;31.07;67.76
5574;BME280;2563;52.242;7.956;2023-06-10T11:09:00;100877.66;;;30.43;66.89
5574;BME280;2563;52.242;7.956;2023-06-10T11:11:27;100878.38;;;30.62;66.28
5574;BME280;2563;52.242;7.956;2023-06-10T11:16:28;100870.63;;;30.77;67.34
5574;BME280;2563;52.242;7.956;2023-06-10T11:18:54;100866.31;;;31.34;68.47
5574;BME280;2563;52.242;7.956;2023-06-10T11:21:20;100859.47;;;31.89;68.10
5574;BME280;2563;52.242;7.956;2023-06-10T11:23:46;100851.84;;;31.37;68.33
5574;BME280;2563;52.242;7.956;2023-06-10T11:29:08;100857.97;;;30.62;72.08
5574;BME280;2563;52.242;7.956;2023-06-10T11:31:45;100856.84;;;30.81;74.88
5574;BME280;2563;52.242;7.956;2023-06-10T11:34:12;100847.03;;;31.32;70.93
5574;BME280;2563;52.242;7.956;2023-06-10T11:36:40;100851.34;;;31.83;72.64
5574;BME280;2563;52.242;7.956;2023-06-10T11:39:08;100857.00;;;30.71;70.84
5574;BME280;2563;52.242;7.956;2023-06-10T11:41:34;100862.38;;;30.19;71.88
5574;BME280;2563;52.242;7.956;2023-06-10T11:44:08;100861.47;;;30.28;70.26
5574;BME280;2563;52.242;7.956;2023-06-10T11:46:34;100855.91;;;30.48;69.50
5574;BME280;2563;52.242;7.956;2023-06-10T11:49:01;100851.03;;;30.09;69.27
5574;BME280;2563;52.242;7.956;2023-06-10T11:51:38;100860.84;;;30.35;71.27
5574;BME280;2563;52.242;7.956;2023-06-10T11:54:05;100849.50;;;31.18;72.09
5574;BME280;2563;52.242;7.956;2023-06-10T11:56:32;100857.78;;;30.56;69.34
5574;BME280;2563;52.242;7.956;2023-06-10T11:59:05;100855.53;;;30.35;68.63
5574;BME280;2563;52.242;7.956;2023-06-10T12:01:34;100855.34;;;30.28;69.20
5574;BME280;2563;52.242;7.956;2023-06-10T12:04:12;100851.25;;;30.42;68.23
5574;BME280;2563;52.242;7.956;2023-06-10T12:06:51;100860.22;;;29.88;69.00
5574;BME280;2563;52.242;7.956;2023-06-10T12:09:25;100854.41;;;30.19;70.10
5574;BME280;2563;52.242;7.956;2023-06-10T12:17:22;100852.41;;;30.13;69.20
5574;BME280;2563;52.242;7.956;2023-06-10T12:19:49;100835.88;;;31.37;71.59
5574;BME280;2563;52.242;7.956;2023-06-10T12:22:15;100837.19;;;31.08;70.03
5574;BME280;2563;52.242;7.956;2023-06-10T12:24:45;100840.47;;;30.86;70.31
5574;BME280;2563;52.242;7.956;2023-06-10T12:27:12;100838.44;;;30.80;70.29
5574;BME280;2563;52.242;7.956;2023-06-10T12:29:37;100822.25;;;31.15;66.93
5574;BME280;2563;52.242;7.956;2023-06-10T12:32:03;100834.66;;;30.90;67.89
5574;BME280;2563;52.242;7.956;2023-06-10T12:34:34;100830.38;;;30.55;68.14
5574;BME280;2563;52.242;7.956;2023-06-10T12:37:01;100825.44;;;30.77;67.60
5574;BME280;2563;52.242;7.956;2023-06-10T12:39:30;100835.66;;;30.98;66.87
5574;BME280;2563;52.242;7.956;2023-06-10T12:41:55;100825.81;;;32.21;68.24
5574;BME280;2563;52.242;7.956;2023-06-10T12:44:31;100825.19;;;32.03;66.58
5574;BME280;2563;52.242;7.956;2023-06-10T12:46:57;100834.16;;;30.44;66.93
5574;BME280;2563;52.242;7.956;2023-06-10T12:49:22;100830.69;;;30.52;67.59
5574;BME280;2563;52.242;7.956;2023-06-10T12:51:47;100819.47;;;31.42;67.19
5574;BME280;2563;52.242;7.956;2023-06-10T12:54:13;100824.72;;;31.33;66.65
5574;BME280;2563;52.242;7.956;2023-06-10T12:56:39;100831.50;;;30.95;65.75
5574;BME280;2563;52.242;7.956;2023-06-10T12:59:04;100824.22;;;31.38;64.95
5574;BME280;2563;52.242;7.956;2023-06-10T13:01:31;100830.88;;;31.26;66.17
5574;BME280;2563;52.242;7.956;2023-06-10T13:03:57;100825.53;;;31.01;66.74
5574;BME280;2563;52.242;7.956;2023-06-10T13:06:22;100825.91;;;31.31;67.61
5574;BME280;2563;52.242;7.956;2023-06-10T13:08:48;100824.91;;;31.24;68.09
5574;BME280;2563;52.242;7.956;2023-06-10T13:11:13;100816.41;;;31.28;68.04
5574;BME280;2563;52.242;7.956;2023-06-10T13:13:39;100814.47;;;31.47;66.36
5574;BME280;2563;52.242;7.956;2023-06-10T13:16:05;100813.97;;;31.51;66.25
5574;BME280;2563;52.242;7.956;2023-06-10T13:18:30;100822.16;;;30.74;66.60
5574;BME280;2563;52.242;7.956;2023-06-10T13:21:02;100823.13;;;30.73;68.79